»·PEaware :: WAT390 KBZN-KSFO

WAT390 :: KBZN-KSFO

FLIGHT INFORMATION

Flight Status: Arrived
Operator:
Walker Air Transport
More flights by this operator :: More flights under this callsign
Pilot: Ewen S. (18928)
Aircraft: BOEING 727-200
(B722)
More flights by this aircraft type
Origin: KBZN Gallatin
United States
Destination: KSFO San Francisco Intl
United States
More flights between these airports :: More routes between these airports
Route: HIA5 HIA V86 CPN V113 LKT J7 FMG MOD9
File this flight plan on PilotEdge
Remarks:
Altitude:
(Current/Filed)
24,000ft
Speed:
(Current/Filed)
459kts
Departed: 19-Feb-21 02:20 PM
Arrived: 19-Feb-21 04:14 PM
Distance/Time
Traveled:
700nm/1:54
Distance/Time
To Go:
Arrived

Flight Plot

Page will automatically refresh every two minutes.

Flight plan parsing failed; only flown route is shown


Map Options




Map Legend


Flown Route
Filed Route
Departure Airport
Arrival Airport
Navaid (VOR, NDB)
Fix

Horizontal Profiles

Position Reports

Time Latitude Longitude Heading Altitude Ground
Speed
19-Feb-21 13:51 45.767243 -111.145169 41 4449ft 0kts
19-Feb-21 13:52 45.767243 -111.145169 41 4449ft 0kts
19-Feb-21 13:53 45.767243 -111.145169 41 4449ft 0kts
19-Feb-21 13:54 45.767243 -111.145169 41 4449ft 0kts
19-Feb-21 13:55 45.767243 -111.145169 41 4449ft 0kts
19-Feb-21 13:56 45.767243 -111.145169 41 4449ft 0kts
19-Feb-21 13:57 45.767243 -111.145169 41 4449ft 0kts
19-Feb-21 13:58 45.767243 -111.145169 41 4449ft 0kts
19-Feb-21 13:59 45.767243 -111.145169 41 4449ft 0kts
19-Feb-21 14:00 45.767243 -111.145169 41 4449ft 0kts
19-Feb-21 14:01 45.767243 -111.145169 41 4449ft 0kts
19-Feb-21 14:02 45.767243 -111.145169 41 4449ft 0kts
19-Feb-21 14:03 45.767243 -111.145169 41 4449ft 0kts
19-Feb-21 14:04 45.767243 -111.145169 41 4449ft 0kts
19-Feb-21 14:05 45.767243 -111.145169 41 4449ft 0kts
19-Feb-21 14:06 45.767243 -111.145169 41 4449ft 0kts
19-Feb-21 14:07 45.767243 -111.145169 41 4449ft 0kts
19-Feb-21 14:08 45.767243 -111.145169 41 4449ft 0kts
19-Feb-21 14:09 45.767243 -111.145169 41 4449ft 0kts
19-Feb-21 14:10 45.767243 -111.145169 41 4449ft 0kts
19-Feb-21 14:11 45.767243 -111.145169 41 4449ft 0kts
19-Feb-21 14:12 45.767243 -111.145169 41 4449ft 0kts
19-Feb-21 14:13 45.767243 -111.145169 41 4449ft 0kts
19-Feb-21 14:14 45.767243 -111.145169 41 4449ft 0kts
19-Feb-21 14:15 45.767519 -111.144900 13 4449ft 4kts
19-Feb-21 14:16 45.769163 -111.146039 35 4449ft 7kts
19-Feb-21 14:17 45.769454 -111.143576 46 4449ft 6kts
19-Feb-21 14:18 45.769663 -111.143265 46 4449ft 0kts
19-Feb-21 14:19 45.771523 -111.143534 315 4449ft 45kts
19-Feb-21 14:20 45.796925 -111.180035 290 4945ft 154kts
19-Feb-21 14:21 45.772575 -111.227647 212 6069ft 182kts
19-Feb-21 14:22 45.731794 -111.278765 232 8238ft 205kts
19-Feb-21 14:23 45.704942 -111.357413 262 10407ft 231kts
19-Feb-21 14:24 45.724368 -111.443421 289 12694ft 249kts
19-Feb-21 14:25 45.750375 -111.543800 290 14756ft 282kts
19-Feb-21 14:26 45.779692 -111.649497 290 17066ft 289kts
19-Feb-21 14:27 45.807990 -111.759201 287 19056ft 297kts
19-Feb-21 14:28 45.830479 -111.874369 264 20741ft 305kts
19-Feb-21 14:29 45.792149 -111.986719 247 22235ft 318kts
19-Feb-21 14:30 45.755783 -112.103645 252 23643ft 321kts
19-Feb-21 14:31 45.724912 -112.229133 255 23995ft 349kts
19-Feb-21 14:32 45.690908 -112.365706 252 23987ft 379kts
19-Feb-21 14:33 45.644797 -112.507233 245 23986ft 407kts
19-Feb-21 14:34 45.582904 -112.649218 240 23987ft 432kts
19-Feb-21 14:35 45.513029 -112.791255 240 23999ft 450kts
19-Feb-21 14:36 45.445429 -112.945198 245 24058ft 459kts
19-Feb-21 14:37 45.388039 -113.110740 249 24098ft 466kts
19-Feb-21 14:38 45.334056 -113.280832 248 24092ft 473kts
19-Feb-21 14:39 45.272639 -113.448019 244 24091ft 478kts
19-Feb-21 14:40 45.205195 -113.611807 244 24091ft 479kts
19-Feb-21 14:41 45.140283 -113.777696 245 24092ft 479kts
19-Feb-21 14:42 45.077117 -113.942301 245 24087ft 472kts
19-Feb-21 14:43 45.010357 -114.101254 234 24085ft 474kts
19-Feb-21 14:44 44.919551 -114.235949 233 24082ft 468kts
19-Feb-21 14:45 44.830445 -114.371121 233 24082ft 467kts
19-Feb-21 14:46 44.742042 -114.506021 233 24082ft 467kts
19-Feb-21 14:47 44.653201 -114.639637 232 24082ft 466kts
19-Feb-21 14:48 44.563889 -114.772632 232 24082ft 467kts
19-Feb-21 14:49 44.473996 -114.904679 232 24082ft 467kts
19-Feb-21 14:50 44.384146 -115.035672 231 24085ft 467kts
19-Feb-21 14:51 44.294072 -115.166738 232 24098ft 468kts
19-Feb-21 14:52 44.192963 -115.283628 222 24102ft 477kts
19-Feb-21 14:53 44.094456 -115.405975 233 24100ft 468kts
19-Feb-21 14:54 44.013172 -115.546039 237 24100ft 464kts
19-Feb-21 14:55 43.929706 -115.684455 232 24103ft 469kts
19-Feb-21 14:56 43.834223 -115.809450 227 24100ft 474kts
19-Feb-21 14:57 43.738003 -115.933578 230 24147ft 471kts
19-Feb-21 14:58 43.646251 -116.062721 231 24177ft 470kts
19-Feb-21 14:59 43.553384 -116.191065 230 24173ft 471kts
19-Feb-21 15:00 43.459718 -116.317934 233 24169ft 466kts
19-Feb-21 15:01 43.397145 -116.467231 236 24175ft 459kts
19-Feb-21 15:02 43.320079 -116.607496 239 24173ft 458kts
19-Feb-21 15:03 43.246951 -116.751318 239 24174ft 461kts
19-Feb-21 15:04 43.170799 -116.893824 237 24174ft 464kts
19-Feb-21 15:05 43.084682 -117.025903 225 24152ft 473kts
19-Feb-21 15:06 42.994098 -117.153242 237 24113ft 463kts
19-Feb-21 15:07 42.924550 -117.299356 242 24119ft 460kts
19-Feb-21 15:08 42.850453 -117.443105 235 24118ft 464kts
19-Feb-21 15:09 42.765509 -117.576249 234 24118ft 465kts
19-Feb-21 15:10 42.683712 -117.711334 236 24119ft 463kts
19-Feb-21 15:11 42.601146 -117.846248 225 24104ft 471kts
19-Feb-21 15:12 42.482016 -117.928277 206 24112ft 490kts
19-Feb-21 15:13 42.359812 -118.004523 213 24117ft 483kts
19-Feb-21 15:14 42.238334 -118.082945 212 24119ft 484kts
19-Feb-21 15:15 42.116186 -118.158376 211 24118ft 485kts
19-Feb-21 15:16 41.992600 -118.231518 211 24123ft 486kts
19-Feb-21 15:17 41.868194 -118.303292 210 24128ft 486kts
19-Feb-21 15:18 41.743345 -118.374534 210 24127ft 486kts
19-Feb-21 15:19 41.619032 -118.446205 211 24127ft 486kts
19-Feb-21 15:20 41.494445 -118.518753 211 24128ft 485kts
19-Feb-21 15:21 41.370808 -118.590867 211 24134ft 485kts
19-Feb-21 15:22 41.247471 -118.662924 211 24150ft 484kts
19-Feb-21 15:23 41.119033 -118.722655 209 24146ft 487kts
19-Feb-21 15:24 40.998575 -118.801352 216 24146ft 480kts
19-Feb-21 15:25 40.885751 -118.896434 219 24154ft 478kts
19-Feb-21 15:26 40.772040 -118.989357 215 24137ft 482kts
19-Feb-21 15:27 40.649108 -119.064483 208 24147ft 491kts
19-Feb-21 15:28 40.517059 -119.119394 203 24146ft 497kts
19-Feb-21 15:29 40.384611 -119.169886 205 24146ft 494kts
19-Feb-21 15:30 40.258015 -119.235115 211 24151ft 487kts
19-Feb-21 15:31 40.137861 -119.314684 214 24165ft 485kts
19-Feb-21 15:32 40.016628 -119.392655 211 24164ft 489kts
19-Feb-21 15:33 39.891493 -119.459730 208 24165ft 493kts
19-Feb-21 15:34 39.765644 -119.525037 210 24164ft 492kts
19-Feb-21 15:35 39.639751 -119.595605 210 24164ft 492kts
19-Feb-21 15:36 39.512858 -119.662901 201 24166ft 500kts
19-Feb-21 15:37 39.381601 -119.713639 205 24166ft 492kts
19-Feb-21 15:38 39.251704 -119.771935 206 24165ft 495kts
19-Feb-21 15:39 39.121696 -119.830460 205 24164ft 498kts
19-Feb-21 15:40 38.989393 -119.887180 204 24177ft 501kts
19-Feb-21 15:41 38.855565 -119.942012 204 24225ft 502kts
19-Feb-21 15:42 38.721530 -119.995469 203 24219ft 504kts
19-Feb-21 15:43 38.587764 -120.048803 204 24236ft 504kts
19-Feb-21 15:44 38.455025 -120.102440 204 24254ft 504kts
19-Feb-21 15:45 38.321339 -120.156897 204 24273ft 505kts
19-Feb-21 15:46 38.187118 -120.211597 204 24292ft 505kts
19-Feb-21 15:47 38.053467 -120.265881 204 24303ft 506kts
19-Feb-21 15:48 37.919082 -120.319900 204 24302ft 507kts
19-Feb-21 15:49 37.785865 -120.372718 203 24317ft 508kts
19-Feb-21 15:50 37.657747 -120.438731 228 24319ft 482kts
19-Feb-21 15:51 37.624651 -120.591663 279 24315ft 463kts
19-Feb-21 15:52 37.657029 -120.723368 260 24039ft 326kts
19-Feb-21 15:54 37.642289 -120.831445 263 21035ft 308kts
19-Feb-21 15:55 37.630055 -120.935937 261 18443ft 304kts
19-Feb-21 15:56 37.619532 -121.039157 254 16464ft 300kts
19-Feb-21 15:57 37.604243 -121.143056 264 14444ft 299kts
19-Feb-21 15:58 37.593211 -121.245112 263 12760ft 295kts
19-Feb-21 15:59 37.582803 -121.347894 264 11147ft 290kts
19-Feb-21 16:00 37.573157 -121.447320 263 10999ft 297kts
19-Feb-21 16:01 37.561195 -121.553591 262 11002ft 311kts
19-Feb-21 16:02 37.544331 -121.649550 249 10986ft 252kts
19-Feb-21 16:03 37.515957 -121.726391 246 9213ft 247kts
19-Feb-21 16:04 37.495865 -121.809212 260 7567ft 245kts
19-Feb-21 16:05 37.493203 -121.894245 267 6354ft 242kts
19-Feb-21 16:06 37.491975 -121.976152 267 5861ft 225kts
19-Feb-21 16:07 37.490917 -122.054876 267 4557ft 223kts
19-Feb-21 16:08 37.514462 -122.120970 298 3976ft 189kts
19-Feb-21 16:09 37.539196 -122.178279 294 3247ft 177kts
19-Feb-21 16:10 37.560692 -122.231643 294 2279ft 154kts
19-Feb-21 16:11 37.579815 -122.277390 295 1486ft 144kts
19-Feb-21 16:12 37.596564 -122.316725 298 862ft 122kts
19-Feb-21 16:13 37.612383 -122.354273 296 133ft 120kts
19-Feb-21 16:14 37.623086 -122.379914 300 19ft 37kts
19-Feb-21 16:14 37.624958 -122.381219 2 17ft 6kts
19-Feb-21 16:16 37.626996 -122.385535 296 16ft 17kts
19-Feb-21 16:16 37.629085 -122.390475 297 16ft 19kts
19-Feb-21 16:17 37.631268 -122.393045 60 17ft 12kts
19-Feb-21 16:19 37.634262 -122.389874 69 21ft 16kts
19-Feb-21 16:19 37.635830 -122.388275 10 22ft 3kts
19-Feb-21 16:20 37.636160 -122.387647 60 21ft 0kts

Navigation Log

Ident Type
Flight plan parsing failed, navigation log unavailable